createdAt,value
2023-09-27T00:00:14.995Z,11.85
2023-09-27T00:02:42.552Z,11.75
2023-09-27T00:05:11.383Z,11.43
2023-09-27T00:07:39.536Z,11.60
2023-09-27T00:10:07.368Z,11.27
2023-09-27T00:12:34.247Z,11.49
2023-09-27T00:15:02.966Z,11.33
2023-09-27T00:17:30.228Z,11.14
2023-09-27T00:19:56.851Z,11.93
2023-09-27T00:22:25.626Z,12.96
2023-09-27T00:24:52.510Z,13.31
2023-09-27T00:27:22.605Z,13.36
2023-09-27T00:29:49.372Z,13.47
2023-09-27T00:32:15.985Z,13.41
2023-09-27T00:34:42.764Z,14.02
2023-09-27T00:37:09.324Z,13.82
2023-09-27T00:39:36.722Z,14.03
2023-09-27T00:42:03.652Z,13.53
2023-09-27T00:44:30.213Z,13.26
2023-09-27T00:46:59.559Z,12.88
2023-09-27T00:49:29.425Z,13.04
2023-09-27T00:51:56.110Z,12.95
2023-09-27T00:54:23.104Z,12.10
2023-09-27T00:56:51.106Z,12.23
2023-09-27T00:59:18.882Z,12.42
2023-09-27T01:01:47.005Z,12.63
2023-09-27T01:04:17.003Z,12.88
2023-09-27T01:06:45.067Z,13.13
2023-09-27T01:09:12.913Z,13.46
2023-09-27T01:11:41.499Z,12.76
2023-09-27T01:14:08.117Z,13.22
2023-09-27T01:16:34.749Z,13.46
2023-09-27T01:19:04.561Z,13.50
2023-09-27T01:21:32.639Z,14.11
2023-09-27T01:23:59.380Z,14.56
2023-09-27T01:26:26.538Z,13.71
2023-09-27T01:28:53.448Z,13.00
2023-09-27T01:31:20.482Z,12.96
2023-09-27T01:33:47.553Z,12.78
2023-09-27T01:36:14.104Z,13.63
2023-09-27T01:38:40.620Z,13.68
2023-09-27T01:41:07.163Z,13.82
2023-09-27T01:43:33.760Z,14.60
2023-09-27T01:46:00.311Z,14.05
2023-09-27T01:48:26.935Z,14.03
2023-09-27T01:50:57.446Z,13.86
2023-09-27T01:53:23.974Z,14.09
2023-09-27T01:55:50.684Z,13.35
2023-09-27T01:58:17.287Z,13.36
2023-09-27T02:00:43.856Z,13.22
2023-09-27T02:03:10.582Z,12.99
2023-09-27T02:05:37.393Z,13.39
2023-09-27T02:08:04.068Z,13.48
2023-09-27T02:10:30.593Z,13.29
2023-09-27T02:12:57.115Z,13.03
2023-09-27T02:15:23.672Z,13.00
2023-09-27T02:17:52.603Z,12.58
2023-09-27T02:20:19.567Z,12.55
2023-09-27T02:22:49.010Z,13.13
2023-09-27T02:25:16.354Z,13.26
2023-09-27T02:27:43.967Z,13.60
2023-09-27T02:30:15.180Z,13.83
2023-09-27T02:32:43.516Z,14.32
2023-09-27T02:35:10.709Z,13.61
2023-09-27T02:37:38.138Z,13.56
2023-09-27T02:40:14.694Z,13.89
2023-09-27T02:42:42.402Z,13.59
2023-09-27T02:45:10.111Z,14.04
2023-09-27T02:47:37.201Z,14.06
2023-09-27T02:50:11.031Z,14.26
2023-09-27T02:52:39.481Z,14.31
2023-09-27T02:55:07.519Z,13.55
2023-09-27T02:57:34.055Z,13.58
2023-09-27T03:00:03.140Z,13.87
2023-09-27T03:02:29.730Z,14.93
2023-09-27T03:04:56.964Z,14.21
2023-09-27T03:07:24.347Z,14.43
2023-09-27T03:09:51.220Z,13.73
2023-09-27T03:12:18.403Z,15.05
2023-09-27T03:14:45.825Z,14.98
2023-09-27T03:17:12.342Z,15.02
2023-09-27T03:19:39.080Z,14.02
2023-09-27T03:22:05.684Z,14.18
2023-09-27T03:24:35.275Z,14.17
2023-09-27T03:27:04.047Z,13.65
2023-09-27T03:29:31.676Z,13.40
2023-09-27T03:31:58.283Z,13.16
2023-09-27T03:34:24.846Z,13.29
2023-09-27T03:36:57.950Z,13.48
2023-09-27T03:39:24.587Z,12.61
2023-09-27T03:41:51.474Z,12.63
2023-09-27T03:44:18.123Z,12.80
2023-09-27T03:46:44.801Z,12.99
2023-09-27T03:49:15.350Z,12.73
2023-09-27T03:51:42.688Z,12.57
2023-09-27T03:54:09.146Z,12.46
2023-09-27T03:56:35.591Z,13.51
2023-09-27T03:59:04.542Z,13.67
2023-09-27T04:01:32.047Z,13.46
2023-09-27T04:03:59.513Z,14.24
2023-09-27T04:06:26.220Z,14.13
2023-09-27T04:08:53.440Z,14.58
2023-09-27T04:11:20.266Z,14.04
2023-09-27T04:13:46.978Z,13.79
2023-09-27T04:16:13.592Z,14.32
2023-09-27T04:18:40.180Z,13.84
2023-09-27T04:21:10.543Z,13.60
2023-09-27T04:23:37.614Z,13.48
2023-09-27T04:26:07.464Z,14.00
2023-09-27T04:28:35.010Z,14.27
2023-09-27T04:31:01.759Z,14.47
2023-09-27T04:33:28.343Z,13.92
2023-09-27T04:35:54.854Z,14.03
2023-09-27T04:38:22.299Z,14.16
2023-09-27T04:40:49.090Z,13.71
2023-09-27T04:43:15.643Z,13.86
2023-09-27T04:45:43.148Z,14.40
2023-09-27T04:48:11.446Z,14.55
2023-09-27T04:50:40.603Z,14.70
2023-09-27T04:53:07.200Z,14.50
2023-09-27T04:55:33.757Z,13.91
2023-09-27T04:58:02.090Z,14.26
2023-09-27T05:00:28.566Z,13.83
2023-09-27T05:02:55.102Z,13.77
2023-09-27T05:05:21.711Z,14.25
2023-09-27T05:07:49.461Z,14.37
2023-09-27T05:10:16.340Z,14.01
2023-09-27T05:12:44.549Z,14.01
2023-09-27T05:15:11.461Z,15.40
2023-09-27T05:17:38.397Z,15.02
2023-09-27T05:20:13.804Z,15.18
2023-09-27T05:22:41.764Z,14.81
2023-09-27T05:25:09.337Z,14.61
2023-09-27T05:27:36.011Z,14.60
2023-09-27T05:30:02.637Z,14.34
2023-09-27T05:32:29.284Z,13.78
2023-09-27T05:34:57.878Z,14.22
2023-09-27T05:37:24.462Z,14.00
2023-09-27T05:39:50.937Z,14.26
2023-09-27T05:42:17.539Z,14.21
2023-09-27T05:44:44.106Z,14.55
2023-09-27T05:47:11.098Z,14.36
2023-09-27T05:49:39.367Z,14.42
2023-09-27T05:52:06.703Z,14.26
2023-09-27T05:54:33.245Z,13.81
2023-09-27T05:57:00.651Z,14.44
2023-09-27T05:59:27.275Z,15.59
2023-09-27T06:01:55.270Z,15.64
2023-09-27T06:04:23.244Z,15.48
2023-09-27T06:06:50.867Z,15.19
2023-09-27T06:09:17.711Z,15.69
2023-09-27T06:11:46.721Z,15.16
2023-09-27T06:14:13.340Z,15.35
2023-09-27T06:16:40.625Z,15.66
2023-09-27T06:19:07.506Z,15.72
2023-09-27T06:21:34.140Z,15.50
2023-09-27T06:24:00.988Z,15.40
2023-09-27T06:26:28.576Z,16.02
2023-09-27T06:28:55.528Z,16.28
2023-09-27T06:31:23.053Z,15.89
2023-09-27T06:33:52.472Z,17.44
2023-09-27T06:36:21.398Z,28.36
2023-09-27T06:38:48.252Z,43.64
2023-09-27T06:41:17.750Z,47.80
2023-09-27T06:43:44.262Z,41.93
2023-09-27T06:46:11.727Z,32.54
2023-09-27T06:48:39.014Z,24.00
2023-09-27T06:51:07.202Z,19.95
2023-09-27T06:53:34.371Z,18.69
2023-09-27T06:56:01.182Z,17.57
2023-09-27T06:58:27.836Z,18.11
2023-09-27T07:00:55.787Z,17.54
2023-09-27T07:03:26.656Z,17.70
2023-09-27T07:05:54.491Z,18.12
2023-09-27T07:08:21.783Z,18.78
2023-09-27T07:10:49.409Z,19.81
2023-09-27T07:13:16.363Z,19.77
2023-09-27T07:15:47.265Z,20.18
2023-09-27T07:18:15.029Z,20.83
2023-09-27T07:20:43.214Z,20.68
2023-09-27T07:23:15.808Z,20.55
2023-09-27T07:25:45.909Z,20.99
2023-09-27T07:28:12.566Z,21.26
2023-09-27T07:30:39.300Z,21.09
2023-09-27T07:33:13.531Z,21.47
2023-09-27T07:35:43.714Z,20.48
2023-09-27T07:38:12.010Z,20.71
2023-09-27T07:40:39.177Z,21.13
2023-09-27T07:43:07.819Z,20.73
2023-09-27T07:45:37.468Z,21.35
2023-09-27T07:48:04.921Z,21.66
2023-09-27T07:50:39.350Z,20.86
2023-09-27T07:53:09.508Z,20.84
2023-09-27T07:55:53.286Z,20.85
2023-09-27T07:58:19.909Z,20.49
2023-09-27T08:00:47.022Z,20.24
2023-09-27T08:03:16.217Z,20.66
2023-09-27T08:05:46.963Z,20.53
2023-09-27T08:08:18.574Z,19.69
2023-09-27T08:10:46.656Z,20.48
2023-09-27T08:13:14.654Z,20.69
2023-09-27T08:15:42.273Z,19.92
2023-09-27T08:18:09.199Z,20.14
2023-09-27T08:20:36.521Z,19.73
2023-09-27T08:23:03.964Z,19.57
2023-09-27T08:25:30.633Z,19.05
2023-09-27T08:27:57.638Z,19.79
2023-09-27T08:30:24.796Z,19.94
2023-09-27T08:32:52.713Z,19.61
2023-09-27T08:35:19.887Z,19.35
2023-09-27T08:37:46.814Z,18.69
2023-09-27T08:40:16.469Z,19.11
2023-09-27T08:42:44.367Z,18.34
2023-09-27T08:45:17.398Z,19.86
2023-09-27T08:47:46.084Z,20.69
2023-09-27T08:50:15.371Z,21.57
2023-09-27T08:52:52.384Z,20.50
2023-09-27T08:55:19.849Z,20.49
2023-09-27T08:57:48.510Z,20.74
2023-09-27T09:00:21.324Z,19.95
2023-09-27T09:02:57.918Z,19.09
2023-09-27T09:05:26.858Z,21.22
2023-09-27T09:07:56.866Z,21.71
2023-09-27T09:10:26.755Z,21.55
2023-09-27T09:12:54.977Z,21.18
2023-09-27T09:15:27.781Z,20.64
2023-09-27T09:17:59.598Z,21.74
2023-09-27T09:20:34.031Z,22.42
2023-09-27T09:23:13.794Z,21.65
2023-09-27T09:25:44.907Z,21.89
2023-09-27T09:28:14.576Z,21.50
2023-09-27T09:30:42.119Z,18.71
2023-09-27T09:33:19.327Z,20.06
2023-09-27T09:35:46.215Z,20.91
2023-09-27T09:38:13.483Z,21.91
2023-09-27T09:40:57.048Z,19.69
2023-09-27T09:43:32.467Z,16.25
2023-09-27T09:46:00.798Z,20.32
2023-09-27T09:48:28.087Z,20.86
2023-09-27T09:51:03.371Z,20.83
2023-09-27T09:53:30.239Z,20.72
2023-09-27T09:56:28.207Z,19.73
2023-09-27T09:59:00.894Z,18.53
2023-09-27T10:01:33.138Z,19.96
2023-09-27T10:06:56.327Z,18.54
2023-09-27T10:09:47.726Z,18.40
2023-09-27T10:12:16.011Z,17.54
2023-09-27T10:14:43.806Z,17.84
2023-09-27T10:17:24.142Z,16.23
2023-09-27T10:20:14.423Z,15.27
2023-09-27T10:22:55.098Z,15.60
2023-09-27T10:25:28.184Z,14.85
2023-09-27T10:28:00.637Z,13.85
2023-09-27T10:30:27.699Z,13.89
2023-09-27T10:33:13.055Z,12.36
2023-09-27T10:35:39.979Z,13.47
2023-09-27T10:38:10.652Z,12.62
2023-09-27T10:40:49.886Z,12.24
2023-09-27T10:43:35.088Z,13.47
2023-09-27T10:46:01.888Z,14.26
2023-09-27T10:48:28.494Z,12.42
2023-09-27T10:50:57.665Z,12.27
2023-09-27T10:53:24.926Z,12.02
2023-09-27T10:55:51.748Z,12.58
2023-09-27T10:58:18.383Z,14.07
2023-09-27T11:00:59.631Z,12.12
2023-09-27T11:03:26.435Z,11.61
2023-09-27T11:06:10.188Z,13.26
2023-09-27T11:08:36.778Z,11.71
2023-09-27T11:11:07.085Z,11.03
2023-09-27T11:13:33.724Z,11.78
2023-09-27T11:16:10.415Z,12.08
2023-09-27T11:18:43.735Z,12.44
2023-09-27T11:21:10.651Z,12.48
2023-09-27T11:23:58.398Z,11.58
2023-09-27T11:26:26.231Z,11.49
2023-09-27T11:28:57.781Z,10.51
2023-09-27T11:31:26.945Z,10.81
2023-09-27T11:33:53.892Z,10.13
2023-09-27T11:36:20.871Z,9.95
2023-09-27T11:38:53.558Z,9.72
2023-09-27T11:41:20.271Z,10.39
2023-09-27T11:43:47.122Z,9.76
2023-09-27T11:46:28.368Z,10.96
2023-09-27T11:48:55.051Z,9.62
2023-09-27T11:51:24.158Z,9.13
2023-09-27T11:53:50.800Z,9.64
2023-09-27T11:56:17.463Z,9.89
2023-09-27T11:58:45.197Z,9.17
2023-09-27T12:01:12.890Z,9.03
2023-09-27T12:03:39.718Z,9.82
2023-09-27T12:06:16.480Z,8.09
2023-09-27T12:08:43.401Z,8.84
2023-09-27T12:11:10.209Z,9.29
2023-09-27T12:13:37.747Z,8.71
2023-09-27T12:16:04.500Z,12.16
2023-09-27T12:18:31.156Z,25.08
2023-09-27T12:20:59.927Z,10.37
2023-09-27T12:23:26.899Z,8.64
2023-09-27T12:25:53.661Z,8.28
2023-09-27T12:28:20.589Z,9.34
2023-09-27T12:30:47.243Z,10.08
2023-09-27T12:33:14.915Z,9.24
2023-09-27T12:35:41.693Z,9.42
2023-09-27T12:38:08.626Z,8.40
2023-09-27T12:40:35.438Z,7.79
2023-09-27T12:43:03.459Z,8.25
2023-09-27T12:45:31.004Z,7.48
2023-09-27T12:47:57.946Z,8.17
2023-09-27T12:50:31.518Z,7.48
2023-09-27T12:52:58.377Z,8.11
2023-09-27T12:55:25.079Z,7.22
2023-09-27T12:57:51.647Z,6.88
2023-09-27T13:00:18.522Z,6.99
2023-09-27T13:02:45.571Z,7.06
2023-09-27T13:05:12.314Z,5.85
2023-09-27T13:07:40.336Z,6.20
2023-09-27T13:10:08.117Z,6.58
2023-09-27T13:12:34.731Z,6.24
2023-09-27T13:15:01.582Z,5.20
2023-09-27T13:17:28.221Z,5.18
2023-09-27T13:19:55.143Z,5.04
2023-09-27T13:22:22.040Z,5.44
2023-09-27T13:24:48.671Z,4.69
2023-09-27T13:27:16.646Z,4.17
2023-09-27T13:29:43.999Z,4.82
2023-09-27T13:32:10.603Z,4.42
2023-09-27T13:34:37.268Z,4.17
2023-09-27T13:37:03.991Z,4.67
2023-09-27T13:39:31.092Z,4.27
2023-09-27T13:41:59.277Z,4.49
2023-09-27T13:44:25.919Z,4.50
2023-09-27T13:46:53.199Z,4.50
2023-09-27T13:49:20.655Z,4.51
2023-09-27T13:51:47.295Z,4.72
2023-09-27T13:54:15.451Z,4.35
2023-09-27T13:56:42.894Z,4.42
2023-09-27T13:59:09.902Z,4.67
2023-09-27T14:01:37.696Z,4.95
2023-09-27T14:04:04.968Z,4.64
2023-09-27T14:06:36.337Z,4.70
2023-09-27T14:09:06.128Z,4.79
2023-09-27T14:11:32.730Z,4.79
2023-09-27T14:13:59.424Z,4.29
2023-09-27T14:16:28.953Z,4.59
2023-09-27T14:18:55.967Z,5.23
2023-09-27T14:21:22.607Z,5.19
2023-09-27T14:23:50.099Z,5.85
2023-09-27T14:26:18.051Z,5.18
2023-09-27T14:28:44.593Z,4.76
2023-09-27T14:31:11.322Z,4.69
2023-09-27T14:33:37.951Z,5.67
2023-09-27T14:36:04.784Z,4.55
2023-09-27T14:38:36.024Z,4.82
2023-09-27T14:41:09.820Z,4.53
2023-09-27T14:43:43.397Z,4.88
2023-09-27T14:46:13.516Z,4.93
2023-09-27T14:48:40.663Z,4.99
2023-09-27T14:51:12.062Z,5.07
2023-09-27T14:53:38.606Z,5.13
2023-09-27T14:56:09.142Z,5.20
2023-09-27T14:58:36.318Z,5.09
2023-09-27T15:01:03.952Z,5.17
2023-09-27T15:03:30.972Z,5.40
2023-09-27T15:06:01.310Z,5.75
2023-09-27T15:08:29.639Z,5.68
2023-09-27T15:10:56.264Z,5.58
2023-09-27T15:13:23.121Z,7.69
2023-09-27T15:15:50.727Z,6.64
2023-09-27T15:18:17.414Z,5.79
2023-09-27T15:20:45.609Z,5.55
2023-09-27T15:23:12.816Z,6.18
2023-09-27T15:25:39.786Z,5.41
2023-09-27T15:28:06.470Z,5.72
2023-09-27T15:30:33.123Z,5.80
2023-09-27T15:32:59.729Z,5.77
2023-09-27T15:35:28.317Z,7.64
2023-09-27T15:37:56.455Z,7.10
2023-09-27T15:40:23.813Z,6.39
2023-09-27T15:42:55.937Z,7.76
2023-09-27T15:45:24.270Z,7.67
2023-09-27T15:47:51.600Z,7.52
2023-09-27T15:50:18.587Z,8.55
2023-09-27T15:52:45.495Z,9.35
2023-09-27T15:55:12.108Z,9.99
2023-09-27T15:57:43.224Z,10.34
2023-09-27T16:00:12.309Z,11.13
2023-09-27T16:02:39.357Z,11.18
2023-09-27T16:05:08.908Z,11.40
2023-09-27T16:07:35.598Z,13.21
2023-09-27T16:10:02.263Z,10.70
2023-09-27T16:12:30.398Z,11.62
2023-09-27T16:14:57.581Z,10.67
2023-09-27T16:17:24.128Z,13.18
2023-09-27T16:19:50.772Z,11.52
2023-09-27T16:22:17.595Z,11.56
2023-09-27T16:24:45.542Z,11.61
2023-09-27T16:27:12.612Z,11.53
2023-09-27T16:29:39.138Z,11.74
2023-09-27T16:32:06.127Z,12.40
2023-09-27T16:34:33.804Z,11.96
2023-09-27T16:37:00.332Z,12.22
2023-09-27T16:39:26.922Z,10.88
2023-09-27T16:41:53.569Z,10.47
2023-09-27T16:44:20.397Z,10.09
2023-09-27T16:46:47.299Z,10.76
2023-09-27T16:49:14.149Z,11.04
2023-09-27T16:51:40.820Z,12.00
2023-09-27T16:54:07.644Z,10.79
2023-09-27T16:56:37.072Z,9.85
2023-09-27T16:59:04.013Z,11.02
2023-09-27T17:01:30.652Z,10.55
2023-09-27T17:03:57.321Z,10.79
2023-09-27T17:06:24.434Z,11.14
2023-09-27T17:08:50.886Z,10.79
2023-09-27T17:11:25.384Z,10.62
2023-09-27T17:13:52.782Z,11.02
2023-09-27T17:16:23.062Z,11.36
2023-09-27T17:18:51.965Z,10.92
2023-09-27T17:21:18.617Z,10.41
2023-09-27T17:23:45.636Z,10.94
2023-09-27T17:26:12.452Z,10.30
2023-09-27T17:28:39.198Z,10.98
2023-09-27T17:31:05.933Z,10.96
2023-09-27T17:33:32.566Z,11.20
2023-09-27T17:36:00.188Z,10.46
2023-09-27T17:38:27.237Z,10.90
2023-09-27T17:40:56.006Z,11.46
2023-09-27T17:43:23.069Z,11.61
2023-09-27T17:45:52.602Z,12.28
2023-09-27T17:48:19.906Z,11.01
2023-09-27T17:50:47.170Z,12.30
2023-09-27T17:53:14.082Z,12.31
2023-09-27T17:55:42.401Z,11.66
2023-09-27T17:58:09.044Z,12.72
2023-09-27T18:00:35.546Z,12.66
2023-09-27T18:03:02.487Z,12.93
2023-09-27T18:05:35.908Z,14.02
2023-09-27T18:08:02.528Z,13.09
2023-09-27T18:10:30.931Z,12.43
2023-09-27T18:12:57.550Z,13.80
2023-09-27T18:15:28.340Z,13.30
2023-09-27T18:17:58.525Z,13.62
2023-09-27T18:20:25.074Z,12.95
2023-09-27T18:22:51.700Z,12.19
2023-09-27T18:25:18.282Z,12.36
2023-09-27T18:27:45.043Z,12.64
2023-09-27T18:30:11.823Z,12.05
2023-09-27T18:32:38.600Z,12.02
2023-09-27T18:35:05.533Z,12.86
2023-09-27T18:37:32.329Z,13.43
2023-09-27T18:39:59.086Z,13.03
2023-09-27T18:42:25.600Z,12.56
2023-09-27T18:44:52.088Z,13.17
2023-09-27T18:47:18.836Z,12.99
2023-09-27T18:49:45.724Z,13.77
2023-09-27T18:52:12.380Z,13.49
2023-09-27T18:54:39.154Z,13.58
2023-09-27T18:57:06.584Z,13.94
2023-09-27T18:59:33.405Z,14.06
2023-09-27T19:02:03.192Z,13.82
2023-09-27T19:04:30.293Z,13.00
2023-09-27T19:07:00.362Z,13.73
2023-09-27T19:09:27.082Z,13.14
2023-09-27T19:11:54.522Z,12.22
2023-09-27T19:14:21.213Z,13.54
2023-09-27T19:16:47.993Z,13.50
2023-09-27T19:19:14.544Z,14.65
2023-09-27T19:21:41.181Z,13.72
2023-09-27T19:24:07.776Z,14.33
2023-09-27T19:26:35.707Z,14.17
2023-09-27T19:29:02.723Z,13.52
2023-09-27T19:31:31.248Z,13.80
2023-09-27T19:33:59.005Z,14.13
2023-09-27T19:36:26.207Z,14.20
2023-09-27T19:38:53.039Z,15.50
2023-09-27T19:41:26.341Z,14.66
2023-09-27T19:43:53.406Z,14.74
2023-09-27T19:46:23.800Z,13.50
2023-09-27T19:48:50.422Z,13.40
2023-09-27T19:51:25.457Z,13.18
2023-09-27T19:53:58.067Z,14.01
2023-09-27T19:56:24.610Z,14.66
2023-09-27T19:58:51.273Z,12.48
2023-09-27T20:01:28.583Z,11.96
2023-09-27T20:03:55.891Z,13.17
2023-09-27T20:06:48.788Z,13.09
2023-09-27T20:09:16.171Z,12.90
2023-09-27T20:11:42.765Z,13.85
2023-09-27T20:14:10.272Z,13.94
2023-09-27T20:16:39.464Z,12.35
2023-09-27T20:19:06.183Z,12.53
2023-09-27T20:21:33.957Z,13.00
2023-09-27T20:24:00.613Z,12.22
2023-09-27T20:26:27.256Z,12.87
2023-09-27T20:28:53.993Z,11.86
2023-09-27T20:34:11.141Z,10.81
2023-09-27T20:36:38.743Z,10.78
2023-09-27T20:39:05.667Z,10.44
2023-09-27T20:41:32.248Z,11.26
2023-09-27T20:44:00.449Z,10.82
2023-09-27T20:46:27.209Z,9.97
2023-09-27T20:48:56.238Z,10.40
2023-09-27T20:51:22.890Z,11.05
2023-09-27T20:53:49.496Z,9.77
2023-09-27T20:56:16.022Z,9.71
2023-09-27T20:58:43.317Z,9.51
2023-09-27T21:01:39.084Z,9.57
2023-09-27T21:04:07.834Z,9.70
2023-09-27T21:06:39.227Z,10.48
2023-09-27T21:09:05.838Z,10.24
2023-09-27T21:11:33.253Z,9.76
2023-09-27T21:14:00.515Z,9.78
2023-09-27T21:16:28.283Z,10.15
2023-09-27T21:18:55.765Z,9.78
2023-09-27T21:21:23.466Z,11.28
2023-09-27T21:23:50.871Z,10.22
2023-09-27T21:26:20.042Z,11.02
2023-09-27T21:28:47.018Z,11.10
2023-09-27T21:31:17.191Z,11.95
2023-09-27T21:33:48.810Z,11.33
2023-09-27T21:36:15.461Z,10.94
2023-09-27T21:38:42.349Z,11.40
2023-09-27T21:41:09.130Z,12.36
2023-09-27T21:43:36.611Z,12.40
2023-09-27T21:46:04.368Z,13.14
2023-09-27T21:48:31.114Z,12.88
2023-09-27T21:50:57.995Z,11.44
2023-09-27T21:53:24.930Z,10.10
2023-09-27T21:55:54.594Z,10.67
2023-09-27T21:58:23.782Z,9.74
2023-09-27T22:00:50.437Z,10.31
2023-09-27T22:03:18.850Z,10.73
2023-09-27T22:05:50.757Z,10.95
2023-09-27T22:08:18.252Z,9.96
2023-09-27T22:10:45.867Z,10.29
2023-09-27T22:13:26.028Z,11.62
2023-09-27T22:15:53.985Z,11.24
2023-09-27T22:18:21.832Z,11.63
2023-09-27T22:23:34.975Z,10.32
2023-09-27T22:26:10.845Z,10.35
2023-09-27T22:28:39.337Z,10.78
2023-09-27T22:31:13.582Z,10.49
2023-09-27T22:33:42.526Z,10.03
2023-09-27T22:36:09.660Z,11.09
2023-09-27T22:38:36.436Z,10.90
2023-09-27T22:41:16.709Z,9.90
2023-09-27T22:43:43.992Z,10.24
2023-09-27T22:46:11.398Z,10.28
2023-09-27T22:48:38.550Z,10.36
2023-09-27T22:51:09.103Z,9.16
2023-09-27T22:53:39.379Z,9.20
2023-09-27T22:56:07.070Z,10.57
2023-09-27T22:58:35.694Z,9.85
2023-09-27T23:01:22.614Z,9.84
2023-09-27T23:03:49.868Z,10.07
2023-09-27T23:06:22.914Z,9.01
2023-09-27T23:08:50.561Z,9.08
2023-09-27T23:11:21.168Z,9.37
2023-09-27T23:14:01.055Z,9.23
2023-09-27T23:16:34.854Z,9.07
2023-09-27T23:19:06.167Z,9.08
2023-09-27T23:21:33.930Z,9.00
2023-09-27T23:24:12.366Z,8.86
2023-09-27T23:27:03.127Z,8.26
2023-09-27T23:29:30.127Z,8.15
2023-09-27T23:32:15.571Z,7.91
2023-09-27T23:34:44.222Z,7.91
2023-09-27T23:37:15.649Z,7.74
2023-09-27T23:39:43.876Z,8.13
2023-09-27T23:42:25.361Z,7.93
2023-09-27T23:45:12.883Z,7.84
2023-09-27T23:47:51.255Z,8.01
2023-09-27T23:50:18.882Z,8.10
2023-09-27T23:52:47.226Z,7.90
2023-09-27T23:55:17.437Z,7.78
2023-09-27T23:57:48.577Z,7.84
